Time;durP1;ratioP1;P1;durP2;ratioP2;P2;SDS_P1;SDS_P2;PMS_P1;PMS_P2;Temp;Humidity;BMP_temperature;BMP_pressure;BME280_temperature;BME280_humidity;BME280_pressure;Samples;Min_cycle;Max_cycle;Signal;HPM_P1;HPM_P2
2022/10/15 00:00:36;;;;;;;32.22;17.77;;;13.40;99.90;;;;;;5018135;28;20068;-60
2022/10/15 00:03:02;;;;;;;45.60;18.10;;;13.40;99.90;;;;;;5021093;28;20038;-61
2022/10/15 00:05:28;;;;;;;40.70;16.83;;;13.40;99.90;;;;;;5016631;28;20057;-61
2022/10/15 00:07:53;;;;;;;39.58;18.50;;;13.40;99.90;;;;;;5020186;28;20025;-60
2022/10/15 00:10:19;;;;;;;21.63;14.82;;;13.40;99.90;;;;;;5020925;28;20088;-61
2022/10/15 00:12:45;;;;;;;20.27;13.88;;;13.40;99.90;;;;;;5013902;28;20041;-59
2022/10/15 00:15:11;;;;;;;17.75;12.75;;;13.50;99.90;;;;;;5014803;28;20034;-60
2022/10/15 00:17:37;;;;;;;19.35;11.70;;;13.50;99.90;;;;;;5021901;28;20458;-59
2022/10/15 00:20:05;;;;;;;20.17;9.52;;;13.50;99.90;;;;;;5016580;28;20041;-61
2022/10/15 00:22:31;;;;;;;10.88;9.05;;;13.50;99.90;;;;;;5017489;28;20056;-61
2022/10/15 00:24:56;;;;;;;10.05;8.98;;;13.50;99.90;;;;;;5017305;28;20502;-61
2022/10/15 00:27:22;;;;;;;13.15;9.95;;;13.50;99.90;;;;;;5016874;28;20026;-61
2022/10/15 00:29:48;;;;;;;11.65;9.90;;;13.50;99.90;;;;;;5018340;28;20497;-61
2022/10/15 00:32:13;;;;;;;17.85;11.10;;;13.50;99.90;;;;;;5012935;28;20025;-61
2022/10/15 00:34:39;;;;;;;25.88;11.00;;;13.50;99.90;;;;;;5014660;28;20056;-60
2022/10/15 00:37:05;;;;;;;25.25;12.35;;;13.50;99.90;;;;;;5015939;28;20409;-59
2022/10/15 00:39:31;;;;;;;24.95;11.98;;;13.50;99.90;;;;;;5012591;28;20030;-60
2022/10/15 00:41:56;;;;;;;22.80;10.90;;;13.50;99.90;;;;;;5019235;28;20033;-61
2022/10/15 00:44:28;;;;;;;17.23;11.93;;;13.50;99.90;;;;;;5018796;28;20033;-60
2022/10/15 00:47:05;;;;;;;19.25;12.50;;;13.50;99.90;;;;;;5014611;28;20030;-59
2022/10/15 00:49:39;;;;;;;20.27;12.60;;;13.50;99.90;;;;;;5013463;28;20569;-61
2022/10/15 00:52:45;;;;;;;21.13;12.48;;;13.50;99.90;;;;;;5017685;28;20109;-60
2022/10/15 00:55:15;;;;;;;19.27;14.18;;;13.50;99.90;;;;;;4988569;28;20466;-61
2022/10/15 00:57:42;;;;;;;19.92;13.05;;;13.50;99.90;;;;;;5011881;28;20040;-61
2022/10/15 01:00:11;;;;;;;25.52;13.23;;;13.50;99.90;;;;;;5013678;28;20512;-61
2022/10/15 01:02:37;;;;;;;36.28;14.52;;;13.50;99.90;;;;;;5016760;28;20863;-60
2022/10/15 01:05:03;;;;;;;28.48;14.57;;;13.50;99.90;;;;;;5014071;28;20054;-64
2022/10/15 01:07:29;;;;;;;32.15;13.20;;;13.40;99.90;;;;;;5015695;28;20101;-60
2022/10/15 01:09:54;;;;;;;29.35;14.43;;;13.50;99.90;;;;;;5023143;28;20120;-60
2022/10/15 01:12:44;;;;;;;34.88;16.20;;;13.50;99.90;;;;;;5019943;28;20117;-60
2022/10/15 01:15:28;;;;;;;37.15;15.93;;;13.50;99.90;;;;;;5021263;28;20045;-61
2022/10/15 01:18:06;;;;;;;36.05;16.02;;;13.50;99.90;;;;;;5018927;28;20029;-60
2022/10/15 01:20:55;;;;;;;37.05;16.30;;;13.50;99.90;;;;;;5021080;28;20125;-61
2022/10/15 01:23:41;;;;;;;41.47;15.68;;;13.40;99.90;;;;;;5019379;28;20034;-60
2022/10/15 01:26:38;;;;;;;39.45;17.27;;;13.50;99.90;;;;;;5016665;28;20052;-61
2022/10/15 01:29:16;;;;;;;27.75;16.58;;;13.40;99.90;;;;;;4986701;28;20155;-61
2022/10/15 01:31:43;;;;;;;20.77;14.43;;;13.40;99.90;;;;;;5013976;28;20474;-59
2022/10/15 01:34:09;;;;;;;19.60;14.10;;;13.50;99.90;;;;;;5016785;28;20597;-60
2022/10/15 01:37:04;;;;;;;46.85;16.65;;;13.50;99.90;;;;;;5015833;28;20049;-60
2022/10/15 01:39:40;;;;;;;20.92;14.90;;;13.50;99.90;;;;;;5015359;28;20045;-61
2022/10/15 01:42:25;;;;;;;50.42;15.88;;;13.50;99.90;;;;;;5014400;28;20118;-60
2022/10/15 01:44:56;;;;;;;40.15;15.90;;;13.50;99.90;;;;;;5016688;28;20088;-61
2022/10/15 01:47:43;;;;;;;44.63;16.33;;;13.50;99.90;;;;;;5010699;28;20023;-61
2022/10/15 01:50:11;;;;;;;37.08;15.85;;;13.50;99.90;;;;;;5017279;28;20026;-61
2022/10/15 01:52:39;;;;;;;30.70;15.27;;;13.50;99.90;;;;;;5015847;28;20017;-60
2022/10/15 01:55:08;;;;;;;33.28;16.48;;;13.50;99.90;;;;;;5016620;28;20025;-61
2022/10/15 01:57:35;;;;;;;31.23;15.95;;;13.50;99.90;;;;;;5013822;28;20026;-61
2022/10/15 02:00:03;;;;;;;35.00;16.52;;;13.50;99.90;;;;;;5019259;28;20501;-61
2022/10/15 02:02:28;;;;;;;24.70;13.98;;;13.50;99.90;;;;;;5019020;28;20524;-61
2022/10/15 02:04:54;;;;;;;45.08;16.73;;;13.50;99.90;;;;;;5028652;28;20026;-61
2022/10/15 02:07:34;;;;;;;45.20;16.52;;;13.50;99.90;;;;;;5023538;28;20024;-60
2022/10/15 02:10:25;;;;;;;36.55;16.30;;;13.50;99.90;;;;;;5023729;28;20160;-59
2022/10/15 02:13:09;;;;;;;28.17;15.88;;;13.50;99.90;;;;;;5021372;28;20034;-62
2022/10/15 02:15:56;;;;;;;32.55;15.98;;;13.50;99.90;;;;;;5021959;28;20037;-60
2022/10/15 02:19:02;;;;;;;39.40;16.20;;;13.50;99.90;;;;;;5018388;28;20029;-60
2022/10/15 02:21:36;;;;;;;30.17;15.52;;;13.50;99.90;;;;;;5017255;28;20037;-60
2022/10/15 02:24:26;;;;;;;38.13;16.50;;;13.50;99.90;;;;;;5023482;28;20033;-60
2022/10/15 02:26:55;;;;;;;48.67;16.08;;;13.50;99.90;;;;;;5018485;28;20041;-60
2022/10/15 02:29:25;;;;;;;57.17;18.10;;;13.50;99.90;;;;;;5016229;28;20498;-60
2022/10/15 02:31:54;;;;;;;43.65;15.82;;;13.50;99.90;;;;;;5019399;28;20054;-60
2022/10/15 02:34:24;;;;;;;26.38;14.25;;;13.50;99.90;;;;;;5020365;28;20021;-60
2022/10/15 02:36:51;;;;;;;22.58;13.60;;;13.50;99.90;;;;;;5020524;28;20034;-60
2022/10/15 02:39:23;;;;;;;19.83;12.82;;;13.60;99.90;;;;;;5018635;28;20034;-61
2022/10/15 02:41:49;;;;;;;15.13;12.48;;;13.50;99.90;;;;;;5021764;28;20033;-60
2022/10/15 02:44:14;;;;;;;28.02;13.25;;;13.50;99.90;;;;;;5019718;28;20474;-60
2022/10/15 02:46:40;;;;;;;20.63;11.95;;;13.60;99.90;;;;;;5021311;28;20049;-59
2022/10/15 02:49:06;;;;;;;14.45;11.75;;;13.60;99.90;;;;;;5021964;28;20042;-59
2022/10/15 02:51:33;;;;;;;31.95;12.88;;;13.60;99.90;;;;;;5033547;28;20036;-60
2022/10/15 02:54:01;;;;;;;23.60;12.25;;;13.60;99.90;;;;;;5014502;28;20030;-60
2022/10/15 02:56:27;;;;;;;18.40;11.77;;;13.60;99.90;;;;;;5021936;28;20053;-60
2022/10/15 02:58:53;;;;;;;31.38;11.90;;;13.50;99.90;;;;;;5021267;28;20474;-61
2022/10/15 03:01:18;;;;;;;32.53;12.75;;;13.50;99.90;;;;;;5019272;28;20060;-61
2022/10/15 03:03:44;;;;;;;27.20;11.45;;;13.50;99.90;;;;;;5017452;28;20026;-61
2022/10/15 03:06:09;;;;;;;20.65;11.45;;;13.50;99.90;;;;;;5021345;28;20067;-60
2022/10/15 03:08:35;;;;;;;23.15;12.15;;;13.50;99.90;;;;;;5017727;28;20033;-61
2022/10/15 03:11:01;;;;;;;20.23;12.15;;;13.50;99.90;;;;;;5020883;28;20363;-60
2022/10/15 03:13:28;;;;;;;37.03;12.98;;;13.50;99.90;;;;;;5018546;28;20080;-61
2022/10/15 03:15:53;;;;;;;20.92;11.80;;;13.50;99.90;;;;;;5019759;28;20033;-60
2022/10/15 03:18:19;;;;;;;17.52;10.57;;;13.60;99.90;;;;;;5020035;28;20025;-61
2022/10/15 03:20:55;;;;;;;20.58;11.23;;;13.50;99.90;;;;;;5013206;28;20034;-61
2022/10/15 03:23:21;;;;;;;29.52;11.38;;;13.50;99.90;;;;;;5020971;28;20045;-60
2022/10/15 03:25:46;;;;;;;16.52;10.80;;;13.60;99.90;;;;;;5014908;28;20064;-61
2022/10/15 03:28:12;;;;;;;14.25;10.80;;;13.60;99.90;;;;;;5016836;28;20057;-61
2022/10/15 03:30:38;;;;;;;16.27;10.80;;;13.60;99.90;;;;;;5014937;28;20822;-61
2022/10/15 03:33:03;;;;;;;22.05;10.63;;;13.60;99.90;;;;;;5016788;28;20137;-61
2022/10/15 03:35:29;;;;;;;16.85;9.35;;;13.60;99.90;;;;;;5019534;28;20021;-61
2022/10/15 03:37:54;;;;;;;25.58;10.15;;;13.60;99.90;;;;;;5019578;28;20105;-60
2022/10/15 03:40:20;;;;;;;15.13;9.98;;;13.60;99.90;;;;;;5020209;28;20053;-61
2022/10/15 03:42:50;;;;;;;10.35;8.63;;;13.60;99.90;;;;;;5022293;28;20105;-58
2022/10/15 03:45:17;;;;;;;15.25;10.13;;;13.60;99.90;;;;;;5023899;28;20037;-61
2022/10/15 03:47:43;;;;;;;18.65;9.75;;;13.60;99.90;;;;;;5017156;28;20079;-60
2022/10/15 03:50:08;;;;;;;25.50;9.27;;;13.60;99.90;;;;;;5018456;28;20676;-60
2022/10/15 03:52:35;;;;;;;26.67;10.82;;;13.60;99.90;;;;;;5011915;28;20037;-60
2022/10/15 03:55:01;;;;;;;14.65;8.95;;;13.60;99.90;;;;;;5016836;28;20641;-61
2022/10/15 03:57:27;;;;;;;11.38;8.63;;;13.60;99.90;;;;;;5018675;28;20022;-61
2022/10/15 03:59:52;;;;;;;14.25;9.55;;;13.60;99.90;;;;;;5017342;28;20121;-61
2022/10/15 04:02:18;;;;;;;26.73;10.02;;;13.60;99.90;;;;;;5020604;28;20030;-61
2022/10/15 04:04:44;;;;;;;17.40;9.43;;;13.60;99.90;;;;;;5021792;28;20061;-60
2022/10/15 04:07:09;;;;;;;19.23;10.50;;;13.60;99.90;;;;;;5024703;28;20017;-60
2022/10/15 04:09:35;;;;;;;15.45;9.57;;;13.60;99.90;;;;;;5016548;28;20041;-60
2022/10/15 04:12:01;;;;;;;11.27;7.90;;;13.60;99.90;;;;;;5016166;28;20058;-61
2022/10/15 04:14:26;;;;;;;20.92;8.70;;;13.60;99.90;;;;;;5016246;28;20143;-60
2022/10/15 04:16:52;;;;;;;13.75;8.93;;;13.60;99.90;;;;;;5017442;28;20034;-60
2022/10/15 04:19:17;;;;;;;14.95;9.40;;;13.60;99.90;;;;;;5017450;28;20032;-59
2022/10/15 04:21:43;;;;;;;16.38;8.60;;;13.60;99.90;;;;;;5019078;28;20028;-60
2022/10/15 04:24:09;;;;;;;23.27;9.57;;;13.60;99.90;;;;;;5016609;28;20062;-61
2022/10/15 04:26:34;;;;;;;14.77;8.63;;;13.60;99.90;;;;;;5015279;28;20057;-61
2022/10/15 04:29:00;;;;;;;18.85;9.35;;;13.60;99.90;;;;;;5018827;28;20116;-61
2022/10/15 04:31:26;;;;;;;16.27;8.70;;;13.60;99.90;;;;;;5018318;28;20029;-61
2022/10/15 04:33:52;;;;;;;17.52;9.73;;;13.60;99.90;;;;;;5015108;28;20448;-60
2022/10/15 04:36:18;;;;;;;16.33;9.68;;;13.60;99.90;;;;;;5019631;28;20038;-61
2022/10/15 04:38:43;;;;;;;20.17;9.40;;;13.60;99.90;;;;;;5018016;28;20029;-61
2022/10/15 04:41:10;;;;;;;19.42;10.13;;;13.60;99.90;;;;;;5015795;28;20041;-61
2022/10/15 04:43:38;;;;;;;24.35;9.50;;;13.60;99.90;;;;;;5020677;28;20013;-61
2022/10/15 04:46:06;;;;;;;27.27;10.40;;;13.70;99.90;;;;;;5018398;28;20707;-60
2022/10/15 04:48:33;;;;;;;31.92;10.68;;;13.60;99.90;;;;;;5017938;28;20037;-60
2022/10/15 04:51:06;;;;;;;21.65;8.43;;;13.60;99.90;;;;;;5015248;28;20387;-60
2022/10/15 04:53:32;;;;;;;18.35;9.27;;;13.70;99.90;;;;;;5013807;28;20033;-61
2022/10/15 04:56:12;;;;;;;17.48;8.80;;;13.60;99.90;;;;;;5019092;28;20095;-64
2022/10/15 04:58:38;;;;;;;12.90;7.57;;;13.70;99.90;;;;;;5019193;28;20025;-61
2022/10/15 05:01:12;;;;;;;16.42;8.80;;;13.70;99.90;;;;;;5020659;28;20036;-60
2022/10/15 05:03:39;;;;;;;12.77;7.95;;;13.70;99.90;;;;;;5018336;28;20049;-61
2022/10/15 05:06:14;;;;;;;11.98;7.53;;;13.70;99.90;;;;;;5015805;28;20498;-60
2022/10/15 05:08:41;;;;;;;15.80;7.53;;;13.70;99.90;;;;;;5022383;28;20028;-60
2022/10/15 05:11:26;;;;;;;9.43;7.07;;;13.70;99.90;;;;;;5021330;28;20096;-60
2022/10/15 05:13:54;;;;;;;18.17;7.55;;;13.70;99.90;;;;;;5017241;28;20026;-60
2022/10/15 05:16:25;;;;;;;13.68;6.85;;;13.70;99.90;;;;;;5018854;28;20063;-60
2022/10/15 05:18:54;;;;;;;20.42;7.60;;;13.70;99.90;;;;;;5024068;28;20124;-59
2022/10/15 05:21:20;;;;;;;27.05;7.93;;;13.70;99.90;;;;;;5020415;28;20091;-60
2022/10/15 05:23:46;;;;;;;19.70;7.70;;;13.70;99.90;;;;;;5020601;28;20034;-60
2022/10/15 05:26:15;;;;;;;22.33;8.15;;;13.70;99.90;;;;;;5019690;28;20040;-61
2022/10/15 05:28:41;;;;;;;20.63;8.68;;;13.70;99.90;;;;;;5016641;28;20029;-61
2022/10/15 05:31:09;;;;;;;32.05;10.18;;;13.70;99.90;;;;;;5014983;28;20026;-60
2022/10/15 05:33:35;;;;;;;19.17;9.77;;;13.70;99.90;;;;;;5018746;28;20022;-61
2022/10/15 05:36:20;;;;;;;33.90;10.30;;;13.70;99.90;;;;;;5017950;28;20107;-61
2022/10/15 05:38:48;;;;;;;26.60;9.43;;;13.70;99.90;;;;;;5019364;28;20090;-60
2022/10/15 05:41:14;;;;;;;17.77;9.52;;;13.70;99.90;;;;;;5025732;28;20037;-60
2022/10/15 05:43:41;;;;;;;24.02;9.25;;;13.70;99.90;;;;;;5020428;28;20030;-60
2022/10/15 05:46:06;;;;;;;25.92;9.43;;;13.70;99.90;;;;;;5023067;28;20672;-61
2022/10/15 05:48:32;;;;;;;16.75;8.23;;;13.70;99.90;;;;;;5015184;28;20090;-60
2022/10/15 05:51:05;;;;;;;21.35;9.73;;;13.70;99.90;;;;;;5022079;28;20046;-60
2022/10/15 05:53:31;;;;;;;27.60;9.00;;;13.70;99.90;;;;;;5019853;28;20034;-60
2022/10/15 05:56:00;;;;;;;27.02;8.95;;;13.70;99.90;;;;;;5017435;28;20049;-59
2022/10/15 05:58:27;;;;;;;19.35;7.80;;;13.70;99.90;;;;;;5019329;28;20041;-59
2022/10/15 06:00:56;;;;;;;17.50;8.15;;;13.80;99.90;;;;;;5019135;28;20095;-59
2022/10/15 06:03:23;;;;;;;10.52;7.07;;;13.80;99.90;;;;;;5020943;28;20046;-59
2022/10/15 06:05:49;;;;;;;15.48;7.05;;;13.80;99.90;;;;;;5019302;28;20036;-59
2022/10/15 06:08:14;;;;;;;8.68;6.43;;;13.80;99.90;;;;;;5021611;28;20025;-59
2022/10/15 06:10:41;;;;;;;11.80;6.60;;;13.90;99.90;;;;;;5023432;28;20044;-59
2022/10/15 06:13:07;;;;;;;13.88;6.85;;;13.90;99.90;;;;;;5017343;28;20025;-59
2022/10/15 06:15:33;;;;;;;9.80;6.22;;;13.90;99.90;;;;;;5017989;28;20053;-59
2022/10/15 06:17:59;;;;;;;11.27;5.75;;;13.90;99.90;;;;;;5020011;28;20443;-60
2022/10/15 06:20:25;;;;;;;18.15;5.97;;;13.90;99.90;;;;;;5017659;28;20033;-58
2022/10/15 06:22:55;;;;;;;10.93;6.25;;;13.90;99.90;;;;;;5020693;28;20068;-60
2022/10/15 06:25:20;;;;;;;12.20;6.57;;;13.90;99.90;;;;;;5022336;28;20068;-59
2022/10/15 06:27:46;;;;;;;13.48;6.38;;;13.90;99.90;;;;;;5020503;28;20065;-59
2022/10/15 06:30:11;;;;;;;15.48;6.50;;;13.90;99.90;;;;;;5019464;28;20512;-59
2022/10/15 06:32:37;;;;;;;11.98;5.93;;;14.00;99.90;;;;;;5018975;28;20082;-59
2022/10/15 06:35:03;;;;;;;17.58;7.20;;;14.00;99.90;;;;;;5019729;28;20033;-59
2022/10/15 06:37:29;;;;;;;16.00;6.80;;;14.00;99.90;;;;;;5019730;28;20064;-61
2022/10/15 06:39:54;;;;;;;13.98;6.70;;;14.00;99.90;;;;;;5022403;28;20132;-60
2022/10/15 06:42:20;;;;;;;17.40;7.95;;;14.00;99.90;;;;;;5014203;28;20034;-59
2022/10/15 06:44:45;;;;;;;20.35;7.53;;;14.00;99.90;;;;;;5024954;28;20021;-60
2022/10/15 06:47:11;;;;;;;14.13;7.38;;;14.00;99.90;;;;;;5015616;28;20033;-58
2022/10/15 06:49:37;;;;;;;21.00;7.55;;;14.10;99.90;;;;;;5015478;28;20045;-60
2022/10/15 06:52:02;;;;;;;13.75;7.35;;;14.10;99.90;;;;;;5017621;28;20072;-61
2022/10/15 06:54:28;;;;;;;16.63;7.05;;;14.10;99.90;;;;;;5020373;28;20037;-60
2022/10/15 06:56:54;;;;;;;14.93;6.95;;;14.10;99.90;;;;;;5019726;28;20437;-60
2022/10/15 06:59:20;;;;;;;13.90;6.57;;;14.20;99.90;;;;;;5019416;28;20052;-60
2022/10/15 07:01:46;;;;;;;11.93;6.05;;;14.20;99.90;;;;;;5021829;28;20458;-61
2022/10/15 07:04:12;;;;;;;14.57;5.97;;;14.30;99.90;;;;;;5023320;28;20026;-59
2022/10/15 07:06:37;;;;;;;13.93;6.57;;;14.30;99.90;;;;;;5020916;28;20113;-58
2022/10/15 07:09:04;;;;;;;11.70;5.68;;;14.30;99.90;;;;;;5021556;28;20029;-60
2022/10/15 07:11:30;;;;;;;8.95;6.13;;;14.30;99.90;;;;;;5016960;28;20068;-59
2022/10/15 07:13:56;;;;;;;13.70;6.40;;;14.40;99.90;;;;;;5019533;28;20454;-58
2022/10/15 07:16:22;;;;;;;5.78;4.75;;;14.40;99.90;;;;;;5020927;28;20470;-60
2022/10/15 07:18:48;;;;;;;4.68;4.03;;;14.50;99.90;;;;;;5023274;28;20037;-59
2022/10/15 07:21:14;;;;;;;4.80;4.07;;;14.60;99.90;;;;;;5022575;28;20045;-61
2022/10/15 07:23:40;;;;;;;4.35;3.95;;;14.70;99.90;;;;;;5017158;28;20785;-59
2022/10/15 07:26:05;;;;;;;4.30;2.53;;;14.80;99.90;;;;;;5021327;28;20138;-61
2022/10/15 07:28:31;;;;;;;3.80;2.50;;;14.90;99.90;;;;;;5016806;28;20038;-60
2022/10/15 07:31:01;;;;;;;6.45;2.40;;;15.00;99.90;;;;;;5020322;28;20171;-59
2022/10/15 07:33:27;;;;;;;3.95;2.45;;;15.00;99.90;;;;;;5016323;28;20053;-59
2022/10/15 07:35:52;;;;;;;2.28;2.13;;;15.00;99.90;;;;;;5017694;28;20058;-59
2022/10/15 07:38:18;;;;;;;4.45;3.08;;;15.00;99.90;;;;;;5020230;28;20079;-60
2022/10/15 07:40:43;;;;;;;3.78;2.85;;;15.10;99.90;;;;;;5016934;28;20025;-60
2022/10/15 07:43:09;;;;;;;4.78;2.67;;;15.10;99.90;;;;;;5020424;28;20014;-60
2022/10/15 07:45:35;;;;;;;6.95;3.03;;;15.20;99.90;;;;;;5018837;28;20266;-59
2022/10/15 07:48:00;;;;;;;4.97;2.70;;;15.20;99.90;;;;;;5018227;28;20899;-59
2022/10/15 07:50:26;;;;;;;7.53;2.53;;;15.30;99.90;;;;;;5021807;28;20556;-59
2022/10/15 07:52:52;;;;;;;5.80;2.72;;;15.30;99.90;;;;;;5021573;28;20026;-59
2022/10/15 07:55:18;;;;;;;4.82;2.35;;;15.40;99.90;;;;;;5013833;28;20022;-60
2022/10/15 07:57:43;;;;;;;2.42;1.90;;;15.50;99.90;;;;;;5022586;28;20089;-60
2022/10/15 08:00:10;;;;;;;11.80;2.17;;;15.60;99.90;;;;;;5020039;28;20038;-60
2022/10/15 08:02:35;;;;;;;10.90;2.20;;;15.70;99.90;;;;;;5016316;28;20032;-60
2022/10/15 08:05:01;;;;;;;1.92;1.45;;;15.80;99.90;;;;;;5019934;28;20125;-60
2022/10/15 08:07:26;;;;;;;2.25;1.20;;;15.90;99.90;;;;;;5026512;28;20028;-60
2022/10/15 08:09:52;;;;;;;1.70;1.00;;;15.90;99.90;;;;;;5022143;28;20034;-59
2022/10/15 08:12:17;;;;;;;3.60;1.13;;;16.00;99.90;;;;;;5021759;28;20528;-59
2022/10/15 08:14:43;;;;;;;2.45;0.90;;;15.90;99.90;;;;;;5017969;28;20398;-59
2022/10/15 08:17:09;;;;;;;4.50;1.13;;;15.80;99.90;;;;;;5020578;28;20065;-59
2022/10/15 08:19:34;;;;;;;1.52;1.05;;;15.70;99.90;;;;;;5019819;28;20120;-60
2022/10/15 08:22:00;;;;;;;2.33;1.10;;;15.70;99.90;;;;;;5020422;28;20032;-59
2022/10/15 08:24:26;;;;;;;2.33;0.80;;;15.70;99.90;;;;;;5016922;28;20030;-59
2022/10/15 08:26:52;;;;;;;1.02;0.60;;;15.80;99.90;;;;;;5018532;28;20029;-59
2022/10/15 08:29:17;;;;;;;0.57;0.50;;;15.70;99.90;;;;;;5019601;28;20028;-60
2022/10/15 08:31:43;;;;;;;1.20;0.73;;;15.60;99.90;;;;;;5018036;28;20022;-59
2022/10/15 08:34:08;;;;;;;1.20;1.10;;;15.60;99.90;;;;;;5016580;28;20064;-60
2022/10/15 08:36:35;;;;;;;2.17;1.10;;;15.60;99.90;;;;;;5019165;28;20045;-60
2022/10/15 08:39:00;;;;;;;0.85;0.85;;;15.60;99.90;;;;;;5019404;28;20120;-60
2022/10/15 08:41:43;;;;;;;1.65;1.00;;;15.70;99.90;;;;;;5015706;28;20589;-59
2022/10/15 08:44:36;;;;;;;1.88;1.00;;;15.70;99.90;;;;;;5019198;28;20812;-60
2022/10/15 08:47:07;;;;;;;1.20;0.80;;;15.80;99.90;;;;;;5015548;28;20040;-59
2022/10/15 08:49:47;;;;;;;1.98;1.00;;;15.70;99.90;;;;;;5016115;28;20117;-61
2022/10/15 08:52:20;;;;;;;0.80;0.80;;;15.70;99.90;;;;;;5021872;28;20037;-60
2022/10/15 08:54:46;;;;;;;2.13;0.90;;;15.70;99.90;;;;;;5015275;28;20030;-60
2022/10/15 08:57:32;;;;;;;0.98;0.73;;;15.70;99.90;;;;;;5018309;28;20516;-59
2022/10/15 09:00:03;;;;;;;0.60;0.60;;;15.70;99.90;;;;;;5013370;28;20084;-60
2022/10/15 09:02:32;;;;;;;;;;;15.80;99.90;;;;;;5020430;28;20025;-60
2022/10/15 09:05:26;;;;;;;1.40;0.82;;;15.80;99.90;;;;;;5015495;28;20419;-59
2022/10/15 09:08:03;;;;;;;2.80;1.02;;;15.80;99.90;;;;;;5030808;28;20041;-60
2022/10/15 09:10:40;;;;;;;0.80;0.80;;;15.80;99.90;;;;;;5025484;28;20026;-60
2022/10/15 09:13:27;;;;;;;4.60;4.30;;;15.80;99.90;;;;;;5021002;28;20073;-60
2022/10/15 09:15:57;;;;;;;28.35;23.33;;;15.90;99.90;;;;;;5038073;28;20094;-59
2022/10/15 09:18:27;;;;;;;1.58;1.13;;;15.90;99.90;;;;;;5040338;28;20375;-59
2022/10/15 09:20:53;;;;;;;2.95;1.60;;;15.90;99.90;;;;;;5039689;28;20041;-60
2022/10/15 09:23:22;;;;;;;11.60;10.38;;;15.90;99.90;;;;;;5038413;28;20508;-59
2022/10/15 09:26:16;;;;;;;5.20;3.80;;;15.90;99.90;;;;;;5038254;28;20082;-61
2022/10/15 09:29:26;;;;;;;3.08;1.90;;;16.00;99.90;;;;;;5038855;28;20037;-59
2022/10/15 09:32:30;;;;;;;1.13;0.80;;;16.10;99.90;;;;;;4999179;28;20048;-60
2022/10/15 09:35:14;;;;;;;1.98;1.88;;;16.20;99.90;;;;;;5044084;28;20091;-60
2022/10/15 09:37:57;;;;;;;4.00;2.35;;;16.30;99.90;;;;;;5042511;28;20560;-60
2022/10/15 09:40:27;;;;;;;2.88;0.50;;;16.30;99.90;;;;;;5040919;28;20041;-59
2022/10/15 09:42:56;;;;;;;3.05;0.77;;;16.30;99.90;;;;;;5040293;28;20393;-60
2022/10/15 09:45:24;;;;;;;2.63;0.70;;;16.40;99.90;;;;;;5041548;28;20063;-61
2022/10/15 09:47:51;;;;;;;1.27;0.77;;;16.50;99.90;;;;;;5043823;28;20026;-60
2022/10/15 09:50:17;;;;;;;1.73;1.10;;;16.50;99.90;;;;;;5039419;28;20036;-60
2022/10/15 09:52:59;;;;;;;2.85;0.60;;;16.60;99.90;;;;;;5038040;28;20013;-60
2022/10/15 09:55:52;;;;;;;1.58;0.52;;;16.60;99.90;;;;;;5046424;28;20020;-60
2022/10/15 09:58:23;;;;;;;2.55;0.90;;;16.70;99.90;;;;;;5038442;28;20071;-60
2022/10/15 10:00:49;;;;;;;;;;;16.70;99.90;;;;;;5036756;28;20271;-60
2022/10/15 10:03:14;;;;;;;2.97;0.68;;;16.80;99.90;;;;;;5039046;28;20511;-61
2022/10/15 10:05:42;;;;;;;0.50;0.50;;;16.90;99.90;;;;;;5039069;28;20030;-59
2022/10/15 10:08:19;;;;;;;0.47;0.47;;;17.10;99.90;;;;;;5040145;28;20112;-60
2022/10/15 10:10:52;;;;;;;1.08;0.90;;;17.30;99.90;;;;;;5041830;28;20033;-59
2022/10/15 10:13:27;;;;;;;1.10;1.00;;;17.40;99.90;;;;;;5040092;28;20021;-61
2022/10/15 10:15:55;;;;;;;6.05;0.40;;;17.50;99.90;;;;;;5040270;28;20027;-60
2022/10/15 10:18:25;;;;;;;1.30;0.63;;;17.50;99.90;;;;;;5039829;28;20131;-61
2022/10/15 10:20:59;;;;;;;0.90;0.63;;;17.50;99.90;;;;;;5039558;28;20041;-61
2022/10/15 10:23:38;;;;;;;1.80;1.70;;;17.50;99.90;;;;;;5037654;28;20029;-60
2022/10/15 10:26:07;;;;;;;1.30;1.08;;;17.50;99.90;;;;;;5036075;28;20430;-59
2022/10/15 10:28:42;;;;;;;0.40;0.40;;;17.40;99.90;;;;;;5045927;28;20032;-60
2022/10/15 10:31:09;;;;;;;1.55;0.70;;;17.30;99.90;;;;;;5038725;28;20093;-61
2022/10/15 10:33:41;;;;;;;1.65;0.70;;;17.20;99.90;;;;;;5040004;28;20029;-60
2022/10/15 10:36:17;;;;;;;1.20;0.80;;;17.20;99.90;;;;;;5037863;28;20029;-59
2022/10/15 10:38:55;;;;;;;3.30;1.48;;;17.30;99.90;;;;;;5037969;28;20022;-60
2022/10/15 10:41:21;;;;;;;2.20;1.75;;;17.30;99.90;;;;;;5044145;28;20030;-59
2022/10/15 10:43:54;;;;;;;7.30;1.20;;;17.30;99.90;;;;;;5038183;28;20028;-60
2022/10/15 10:46:23;;;;;;;0.70;0.45;;;17.20;99.90;;;;;;5040010;28;20049;-60
2022/10/15 10:48:50;;;;;;;1.50;0.50;;;17.10;99.90;;;;;;5040958;28;20128;-60
2022/10/15 10:51:26;;;;;;;2.28;0.60;;;17.00;99.90;;;;;;5040738;28;20041;-61
2022/10/15 10:53:56;;;;;;;1.02;1.02;;;16.90;99.90;;;;;;5038433;28;20057;-60
2022/10/15 10:56:32;;;;;;;0.63;0.60;;;16.80;99.90;;;;;;5040973;28;20581;-60
2022/10/15 10:59:02;;;;;;;0.65;0.65;;;16.70;99.90;;;;;;5039247;28;20061;-60
2022/10/15 11:01:28;;;;;;;0.77;0.73;;;16.60;99.90;;;;;;5036842;28;20087;-60
2022/10/15 11:03:54;;;;;;;1.17;1.00;;;16.60;99.90;;;;;;5038645;28;20525;-59
2022/10/15 11:06:40;;;;;;;0.70;0.70;;;16.60;99.90;;;;;;5039606;28;20112;-60
2022/10/15 11:09:15;;;;;;;0.85;0.80;;;16.60;99.90;;;;;;5040506;28;20039;-60
2022/10/15 11:12:05;;;;;;;2.00;0.50;;;16.80;99.90;;;;;;5039154;28;20572;-60
2022/10/15 11:14:43;;;;;;;0.65;0.50;;;16.90;99.90;;;;;;5043796;28;20040;-59
2022/10/15 11:17:14;;;;;;;1.00;0.85;;;17.00;99.90;;;;;;5015438;28;20033;-60
2022/10/15 11:19:50;;;;;;;0.60;0.60;;;17.10;99.90;;;;;;5020030;28;20100;-60
2022/10/15 11:22:31;;;;;;;0.80;0.80;;;17.30;99.90;;;;;;5032832;28;20036;-60
2022/10/15 11:25:27;;;;;;;1.13;0.40;;;17.50;99.90;;;;;;5041878;28;20069;-60
2022/10/15 11:27:53;;;;;;;0.57;0.40;;;17.50;99.90;;;;;;5040612;28;20117;-59
2022/10/15 11:30:31;;;;;;;0.40;0.40;;;17.60;99.90;;;;;;5036238;28;20182;-60
2022/10/15 11:33:44;;;;;;;0.88;0.45;;;17.60;99.90;;;;;;5038645;28;20060;-60
2022/10/15 11:36:18;;;;;;;0.93;0.40;;;17.60;99.90;;;;;;5005325;28;20674;-60
2022/10/15 11:39:23;;;;;;;1.27;0.40;;;17.60;99.90;;;;;;4982092;28;20064;-59
2022/10/15 11:42:02;;;;;;;1.25;0.43;;;17.70;99.90;;;;;;4980966;28;20037;-58
2022/10/15 11:44:47;;;;;;;1.15;0.50;;;17.70;99.90;;;;;;5018591;28;20436;-61
2022/10/15 11:47:33;;;;;;;3.95;0.40;;;17.60;99.90;;;;;;5016839;28;20030;-61
2022/10/15 11:50:25;;;;;;;1.00;0.50;;;17.50;99.90;;;;;;5014799;28;20038;-60
2022/10/15 11:53:28;;;;;;;1.55;0.43;;;17.40;99.90;;;;;;5016824;28;20116;-60
2022/10/15 11:56:11;;;;;;;0.38;0.38;;;17.30;99.90;;;;;;5016726;28;20345;-59
2022/10/15 11:58:40;;;;;;;1.30;1.05;;;17.30;99.90;;;;;;5020503;28;20025;-59
2022/10/15 12:01:29;;;;;;;0.95;0.70;;;17.40;99.90;;;;;;5018609;28;20037;-61
2022/10/15 12:04:00;;;;;;;0.60;0.60;;;17.50;99.90;;;;;;5021289;28;20029;-60
2022/10/15 12:06:29;;;;;;;0.50;0.50;;;17.60;99.90;;;;;;5025224;28;20375;-60
2022/10/15 12:08:56;;;;;;;1.05;0.75;;;17.50;99.90;;;;;;5020764;28;20311;-59
2022/10/15 12:11:46;;;;;;;2.85;0.70;;;17.50;99.90;;;;;;5018985;28;20022;-60
2022/10/15 12:14:26;;;;;;;1.48;0.70;;;17.60;99.90;;;;;;5016933;28;20022;-60
2022/10/15 12:16:57;;;;;;;1.98;0.90;;;17.70;99.90;;;;;;5012343;28;20037;-61
2022/10/15 12:19:41;;;;;;;1.25;0.60;;;17.90;99.90;;;;;;5014349;28;20044;-60
2022/10/15 12:22:12;;;;;;;1.48;0.70;;;18.10;99.90;;;;;;5015723;28;20049;-61
2022/10/15 12:24:38;;;;;;;1.40;0.60;;;18.20;99.90;;;;;;5018436;28;20044;-60
2022/10/15 12:27:19;;;;;;;0.95;0.80;;;18.20;99.90;;;;;;5014972;28;20816;-60
2022/10/15 12:30:02;;;;;;;0.77;0.70;;;18.30;99.90;;;;;;5019363;28;20033;-61
2022/10/15 12:32:44;;;;;;;3.70;0.70;;;18.20;99.90;;;;;;5016186;28;20064;-60
2022/10/15 12:35:13;;;;;;;1.38;0.90;;;18.00;99.90;;;;;;5018196;28;20056;-59
2022/10/15 12:37:41;;;;;;;3.70;0.65;;;17.90;99.90;;;;;;5018515;28;20025;-60
2022/10/15 12:40:28;;;;;;;1.85;0.75;;;17.80;99.90;;;;;;5017842;28;20026;-60
2022/10/15 12:43:04;;;;;;;1.23;0.73;;;17.50;99.90;;;;;;5010926;28;20112;-60
2022/10/15 12:45:39;;;;;;;0.60;0.60;;;17.30;99.90;;;;;;5014340;28;20030;-60
2022/10/15 12:48:04;;;;;;;1.17;0.60;;;17.20;99.90;;;;;;5016493;28;20040;-59
2022/10/15 12:50:32;;;;;;;1.05;0.70;;;17.00;99.90;;;;;;5019336;28;20029;-59
2022/10/15 12:53:02;;;;;;;0.70;0.70;;;16.90;99.90;;;;;;5013600;28;20041;-60
2022/10/15 12:55:35;;;;;;;1.48;0.80;;;16.90;99.90;;;;;;5018414;28;20108;-60
2022/10/15 12:58:33;;;;;;;0.98;0.82;;;16.90;99.90;;;;;;5015794;28;20646;-60